Nikola — WDF2719 — position and weather

sailwx.info

Track history (hours):
 
Tides and Currents Weather Stations Pressure Air Temp Water Temp Dewpoint Dewpoint Depression Visibility Wind Speed Wind Dir Waves Ship Positions

Nikola

Owner: TESLA MARINE, INC., PRAIRIEVILLE, LA. More information available from US FCC via Universal Licensing System and Coast Guard Vessel Documentation Center.

Last reported at 2017-Sep-18 19:12 UTC. Time now 2017-Oct-18 16:23 UTC.
Position N 25°29' W 080°06'.
Warning: this ship's position is 29 days out of date.

Length 32 m; draft 3 m.

Type: . MMSI: 367431130.

Date/timePositionNaut miles runAvg speedWind from/ knotsBaromVisibWave heightAir tempDewpointWater temp
2017-Sep-18 19:12N 25°29' W 080°06'1 4.1
2017-Sep-18 19:00N 25°30' W 080°06'2 4.6
2017-Sep-18 18:30N 25°32' W 080°06'2 4.4
2017-Sep-18 18:00N 25°34' W 080°05'2 4.8
2017-Sep-18 17:30N 25°37' W 080°05'2 4.7
2017-Sep-18 17:00N 25°39' W 080°05'3 5.2
2017-Sep-18 16:30N 25°42' W 080°05'0 0.4
2017-Sep-18 16:00N 25°42' W 080°05'0 0.6
2017-Sep-18 15:30N 25°41' W 080°05'3 6.4
2017-Sep-18 15:00N 25°45' W 080°05'4 7.9
2017-Sep-18 14:30N 25°49' W 080°05'4 7.9
2017-Sep-18 14:00N 25°53' W 080°06'4 8.5
2017-Sep-18 13:30N 25°57' W 080°05'5 9.4
2017-Sep-18 13:00N 26°01' W 080°05'4 9.0
2017-Sep-18 12:30N 26°06' W 080°04'4 8.5
2017-Sep-18 12:00N 26°10' W 080°03'4 8.5
2017-Sep-18 11:30N 26°14' W 080°03'4 8.1
2017-Sep-18 11:00N 26°18' W 080°03'4 7.8
2017-Sep-18 10:30N 26°22' W 080°02'28 8.4
2017-Sep-18 07:08N 26°51' W 080°02'1 8.2
2017-Sep-18 07:00N 26°52' W 080°02'4 8.5
2017-Sep-18 06:30N 26°56' W 080°03'299 7.3
2017-Sep-16 13:30N 31°52' W 080°52'4 8.2
2017-Sep-16 13:00N 31°55' W 080°49'4 7.8
2017-Sep-16 12:30N 31°56' W 080°44'4 7.9
2017-Sep-16 12:00N 31°58' W 080°40'4 7.9
2017-Sep-16 11:27N 32°02' W 080°37'4 8.1
2017-Sep-16 11:00N 32°05' W 080°35'47 7.8
2017-Sep-16 04:55N 32°37' W 079°54'193 6.5
2017-Sep-14 23:23N 34°30' W 076°46'3 7.6
2017-Sep-14 23:00N 34°29' W 076°43'6 7.4
2017-Sep-14 22:10N 34°28' W 076°36'2 7.1
2017-Sep-14 21:53N 34°27' W 076°33'3 5.6
2017-Sep-14 21:26N 34°27' W 076°30'3 6.1
2017-Sep-14 21:00N 34°27' W 076°27'144 6.2
2017-Sep-13 21:38N 36°49' W 075°55'2 7.3
2017-Sep-13 21:19N 36°51' W 075°55'2 7.2
2017-Sep-13 21:00N 36°53' W 075°56'3 6.7
2017-Sep-13 20:29N 36°56' W 075°59'3 6.7
2017-Sep-13 20:00N 36°57' W 076°03'17 0.6
2017-Sep-12 13:44N 36°58' W 076°25'0 0.0
2017-Sep-12 13:29N 36°58' W 076°25'0 0.0
2017-Sep-12 13:00N 36°58' W 076°25'0 0.0
2017-Sep-12 12:30N 36°58' W 076°25'  
2017-Sep-08 23:29N 36°58' W 076°06'4 8.5
2017-Sep-08 23:00N 36°57' W 076°01'3 6.8
2017-Sep-08 22:31N 36°55' W 075°58'3 6.3
2017-Sep-08 22:00N 36°52' W 075°56'4 7.7
2017-Sep-08 21:30N 36°49' W 075°54'  
Track history (hours):
 
Tides and Currents Weather Stations Pressure Air Temp Water Temp Dewpoint Dewpoint Depression Visibility Wind Speed Wind Dir Waves Ship Positions

Nikola

Owner: TESLA MARINE, INC., PRAIRIEVILLE, LA. More information available from US FCC via Universal Licensing System and Coast Guard Vessel Documentation Center.

Last reported at 2017-Sep-18 19:12 UTC. Time now 2017-Oct-18 16:23 UTC.
Position N 25°29' W 080°06'.
Warning: this ship's position is 29 days out of date.

Length 32 m; draft 3 m.

Type: . MMSI: 367431130.

Date/timePositionNaut miles runAvg speedWind from/ knotsBaromVisibWave heightAir tempDewpointWater temp
2017-Sep-18 19:12N 25°29' W 080°06'1 4.1
2017-Sep-18 19:00N 25°30' W 080°06'2 4.6
2017-Sep-18 18:30N 25°32' W 080°06'2 4.4
2017-Sep-18 18:00N 25°34' W 080°05'2 4.8
2017-Sep-18 17:30N 25°37' W 080°05'2 4.7
2017-Sep-18 17:00N 25°39' W 080°05'3 5.2
2017-Sep-18 16:30N 25°42' W 080°05'0 0.4
2017-Sep-18 16:00N 25°42' W 080°05'0 0.6
2017-Sep-18 15:30N 25°41' W 080°05'3 6.4
2017-Sep-18 15:00N 25°45' W 080°05'4 7.9
2017-Sep-18 14:30N 25°49' W 080°05'4 7.9
2017-Sep-18 14:00N 25°53' W 080°06'4 8.5
2017-Sep-18 13:30N 25°57' W 080°05'5 9.4
2017-Sep-18 13:00N 26°01' W 080°05'4 9.0
2017-Sep-18 12:30N 26°06' W 080°04'4 8.5
2017-Sep-18 12:00N 26°10' W 080°03'4 8.5
2017-Sep-18 11:30N 26°14' W 080°03'4 8.1
2017-Sep-18 11:00N 26°18' W 080°03'4 7.8
2017-Sep-18 10:30N 26°22' W 080°02'28 8.4
2017-Sep-18 07:08N 26°51' W 080°02'1 8.2
2017-Sep-18 07:00N 26°52' W 080°02'4 8.5
2017-Sep-18 06:30N 26°56' W 080°03'299 7.3
2017-Sep-16 13:30N 31°52' W 080°52'4 8.2
2017-Sep-16 13:00N 31°55' W 080°49'4 7.8
2017-Sep-16 12:30N 31°56' W 080°44'4 7.9
2017-Sep-16 12:00N 31°58' W 080°40'4 7.9
2017-Sep-16 11:27N 32°02' W 080°37'4 8.1
2017-Sep-16 11:00N 32°05' W 080°35'47 7.8
2017-Sep-16 04:55N 32°37' W 079°54'193 6.5
2017-Sep-14 23:23N 34°30' W 076°46'3 7.6
2017-Sep-14 23:00N 34°29' W 076°43'6 7.4
2017-Sep-14 22:10N 34°28' W 076°36'2 7.1
2017-Sep-14 21:53N 34°27' W 076°33'3 5.6
2017-Sep-14 21:26N 34°27' W 076°30'3 6.1
2017-Sep-14 21:00N 34°27' W 076°27'144 6.2
2017-Sep-13 21:38N 36°49' W 075°55'2 7.3
2017-Sep-13 21:19N 36°51' W 075°55'2 7.2
2017-Sep-13 21:00N 36°53' W 075°56'3 6.7
2017-Sep-13 20:29N 36°56' W 075°59'3 6.7
2017-Sep-13 20:00N 36°57' W 076°03'17 0.6
2017-Sep-12 13:44N 36°58' W 076°25'0 0.0
2017-Sep-12 13:29N 36°58' W 076°25'0 0.0
2017-Sep-12 13:00N 36°58' W 076°25'0 0.0
2017-Sep-12 12:30N 36°58' W 076°25'  
2017-Sep-08 23:29N 36°58' W 076°06'4 8.5
2017-Sep-08 23:00N 36°57' W 076°01'3 6.8
2017-Sep-08 22:31N 36°55' W 075°58'3 6.3
2017-Sep-08 22:00N 36°52' W 075°56'4 7.7
2017-Sep-08 21:30N 36°49' W 075°54'  

Dump ship's entire track history